createdAt,value
2022-11-01T00:01:58.282Z,68.70
2022-11-01T00:04:25.514Z,69.21
2022-11-01T00:06:52.523Z,69.07
2022-11-01T00:09:19.586Z,68.59
2022-11-01T00:11:46.765Z,68.80
2022-11-01T00:14:15.549Z,68.32
2022-11-01T00:16:43.284Z,68.44
2022-11-01T00:19:10.432Z,68.88
2022-11-01T00:21:37.603Z,67.88
2022-11-01T00:24:04.989Z,67.31
2022-11-01T00:26:32.216Z,67.78
2022-11-01T00:28:59.170Z,67.67
2022-11-01T00:31:26.703Z,68.11
2022-11-01T00:33:53.600Z,67.20
2022-11-01T00:36:20.632Z,66.13
2022-11-01T00:38:52.177Z,65.92
2022-11-01T00:41:21.829Z,65.71
2022-11-01T00:43:49.322Z,65.82
2022-11-01T00:46:17.099Z,65.92
2022-11-01T00:48:44.077Z,65.60
2022-11-01T00:51:11.084Z,65.72
2022-11-01T00:53:38.047Z,65.57
2022-11-01T00:56:06.849Z,65.54
2022-11-01T00:58:34.359Z,65.83
2022-11-01T01:01:01.845Z,65.57
2022-11-01T01:03:29.053Z,65.73
2022-11-01T01:05:56.198Z,65.54
2022-11-01T01:08:23.926Z,65.90
2022-11-01T01:10:51.245Z,66.68
2022-11-01T01:13:18.372Z,66.20
2022-11-01T01:15:46.196Z,65.71
2022-11-01T01:18:13.602Z,65.30
2022-11-01T01:20:40.661Z,65.50
2022-11-01T01:23:07.743Z,66.12
2022-11-01T01:25:35.014Z,66.00
2022-11-01T01:28:02.631Z,66.91
2022-11-01T01:30:29.690Z,66.67
2022-11-01T01:32:56.606Z,66.93
2022-11-01T01:35:23.573Z,67.56
2022-11-01T01:37:50.518Z,67.46
2022-11-01T01:40:17.427Z,67.72
2022-11-01T01:42:44.431Z,67.86
2022-11-01T01:45:17.242Z,67.83
2022-11-01T01:47:47.700Z,67.90
2022-11-01T01:50:29.739Z,67.82
2022-11-01T01:53:18.036Z,68.47
2022-11-01T01:56:07.254Z,68.54
2022-11-01T01:58:46.049Z,69.42
2022-11-01T02:01:13.372Z,69.22
2022-11-01T02:03:41.535Z,69.29
2022-11-01T02:06:14.769Z,69.34
2022-11-01T02:08:58.189Z,69.81
2022-11-01T02:11:25.117Z,69.31
2022-11-01T02:13:52.745Z,69.86
2022-11-01T02:16:38.475Z,70.85
2022-11-01T02:19:47.488Z,71.15
2022-11-01T02:22:34.633Z,70.91
2022-11-01T02:25:23.069Z,71.01
2022-11-01T02:28:20.517Z,71.35
2022-11-01T02:31:16.792Z,71.57
2022-11-01T02:34:07.345Z,72.53
2022-11-01T02:37:02.739Z,73.06
2022-11-01T02:39:34.343Z,73.03
2022-11-01T02:42:15.607Z,72.33
2022-11-01T02:44:51.553Z,72.87
2022-11-01T02:47:19.477Z,73.04
2022-11-01T02:49:51.884Z,73.10
2022-11-01T02:52:24.185Z,73.17
2022-11-01T02:54:58.875Z,73.69
2022-11-01T02:57:37.373Z,73.33
2022-11-01T03:00:23.084Z,73.97
2022-11-01T03:02:57.077Z,73.66
2022-11-01T03:05:52.417Z,73.96
2022-11-01T03:08:24.000Z,73.87
2022-11-01T03:11:02.078Z,74.40
2022-11-01T03:13:42.221Z,75.29
2022-11-01T03:16:35.759Z,74.96
2022-11-01T03:19:02.721Z,75.73
2022-11-01T03:21:37.172Z,75.75
2022-11-01T03:24:29.031Z,77.83
2022-11-01T03:27:06.533Z,77.66
2022-11-01T03:29:36.724Z,78.21
2022-11-01T03:32:05.573Z,78.82
2022-11-01T03:34:35.609Z,78.82
2022-11-01T03:37:07.356Z,79.23
2022-11-01T03:39:54.746Z,80.59
2022-11-01T03:42:24.238Z,79.92
2022-11-01T03:44:58.486Z,80.37
2022-11-01T03:47:25.923Z,80.68
2022-11-01T03:50:19.789Z,80.46
2022-11-01T03:52:47.170Z,80.93
2022-11-01T03:55:19.395Z,80.57
2022-11-01T03:57:51.667Z,82.55
2022-11-01T04:00:21.785Z,83.17
2022-11-01T04:02:50.233Z,83.10
2022-11-01T04:05:18.135Z,83.39
2022-11-01T04:07:45.449Z,83.13
2022-11-01T04:10:13.190Z,83.99
2022-11-01T04:12:40.659Z,84.03
2022-11-01T04:15:26.629Z,84.60
2022-11-01T04:18:37.326Z,85.66
2022-11-01T04:21:25.665Z,86.43
2022-11-01T04:23:52.988Z,86.79
2022-11-01T04:26:22.423Z,87.10
2022-11-01T04:28:58.675Z,87.18
2022-11-01T04:31:34.760Z,87.09
2022-11-01T04:34:03.094Z,86.16
2022-11-01T04:36:30.542Z,85.33
2022-11-01T04:38:58.487Z,84.73
2022-11-01T04:41:27.553Z,83.73
2022-11-01T04:43:57.143Z,83.27
2022-11-01T04:46:24.196Z,83.25
2022-11-01T04:48:51.534Z,83.68
2022-11-01T04:51:18.607Z,83.36
2022-11-01T04:53:45.679Z,82.72
2022-11-01T04:56:14.211Z,82.34
2022-11-01T04:58:45.915Z,82.65
2022-11-01T05:01:15.187Z,82.56
2022-11-01T05:03:45.098Z,82.57
2022-11-01T05:06:12.249Z,82.43
2022-11-01T05:08:39.189Z,83.11
2022-11-01T05:11:06.890Z,83.21
2022-11-01T05:13:33.855Z,83.37
2022-11-01T05:16:20.765Z,83.57
2022-11-01T05:18:49.824Z,83.53
2022-11-01T05:21:17.109Z,83.53
2022-11-01T05:23:44.417Z,83.31
2022-11-01T05:26:11.719Z,82.95
2022-11-01T05:28:38.927Z,83.12
2022-11-01T05:31:05.902Z,83.04
2022-11-01T05:33:33.345Z,82.67
2022-11-01T05:36:03.549Z,82.17
2022-11-01T05:38:30.688Z,81.74
2022-11-01T05:40:57.738Z,81.40
2022-11-01T05:43:24.945Z,81.53
2022-11-01T05:45:51.911Z,81.44
2022-11-01T05:48:19.371Z,80.74
2022-11-01T05:50:47.171Z,81.25
2022-11-01T05:53:14.720Z,81.29
2022-11-01T05:55:42.564Z,80.79
2022-11-01T05:58:09.852Z,81.72
2022-11-01T06:00:36.951Z,81.28
2022-11-01T06:03:06.910Z,81.14
2022-11-01T06:05:34.781Z,80.85
2022-11-01T06:08:02.929Z,81.01
2022-11-01T06:10:31.188Z,80.58
2022-11-01T06:12:58.151Z,80.24
2022-11-01T06:15:25.392Z,81.73
2022-11-01T06:17:57.359Z,82.72
2022-11-01T06:20:29.647Z,79.93
2022-11-01T06:22:58.065Z,78.92
2022-11-01T06:25:26.126Z,78.83
2022-11-01T06:27:54.397Z,78.06
2022-11-01T06:30:21.837Z,77.77
2022-11-01T06:32:48.909Z,77.64
2022-11-01T06:35:16.217Z,77.53
2022-11-01T06:37:43.473Z,77.03
2022-11-01T06:40:13.113Z,76.77
2022-11-01T06:42:45.374Z,76.27
2022-11-01T06:45:14.423Z,77.20
2022-11-01T06:47:46.424Z,75.45
2022-11-01T06:50:13.537Z,75.58
2022-11-01T06:52:41.056Z,75.63
2022-11-01T06:55:08.592Z,75.27
2022-11-01T06:57:35.490Z,75.00
2022-11-01T07:00:03.566Z,74.42
2022-11-01T07:02:30.576Z,74.38
2022-11-01T07:04:58.074Z,74.18
2022-11-01T07:07:26.793Z,73.45
2022-11-01T07:09:53.981Z,73.93
2022-11-01T07:12:20.832Z,73.44
2022-11-01T07:14:48.470Z,72.75
2022-11-01T07:17:15.321Z,71.94
2022-11-01T07:19:42.960Z,71.05
2022-11-01T07:22:10.274Z,70.78
2022-11-01T07:24:37.392Z,70.43
2022-11-01T07:27:04.360Z,69.95
2022-11-01T07:29:32.088Z,69.84
2022-11-01T07:31:58.992Z,69.21
2022-11-01T07:34:26.459Z,69.32
2022-11-01T07:36:53.851Z,68.74
2022-11-01T07:39:21.039Z,68.26
2022-11-01T07:41:48.321Z,67.81
2022-11-01T07:44:16.104Z,67.34
2022-11-01T07:46:42.958Z,67.30
2022-11-01T07:49:10.083Z,66.92
2022-11-01T07:51:37.239Z,66.75
2022-11-01T07:54:04.765Z,66.76
2022-11-01T07:56:31.721Z,66.68
2022-11-01T07:58:59.836Z,66.43
2022-11-01T08:01:26.834Z,66.04
2022-11-01T08:03:54.096Z,65.64
2022-11-01T08:08:49.202Z,64.95
2022-11-01T08:11:16.054Z,64.37
2022-11-01T08:13:43.586Z,64.28
2022-11-01T08:16:10.446Z,63.92
2022-11-01T08:18:37.614Z,62.71
2022-11-01T08:21:05.179Z,62.46
2022-11-01T08:23:32.305Z,62.12
2022-11-01T08:26:00.725Z,61.35
2022-11-01T08:28:30.178Z,60.92
2022-11-01T08:30:57.093Z,60.32
2022-11-01T08:33:24.250Z,59.86
2022-11-01T08:35:51.443Z,59.68
2022-11-01T08:38:20.395Z,58.93
2022-11-01T08:40:48.197Z,58.61
2022-11-01T08:43:16.007Z,58.38
2022-11-01T08:45:42.929Z,59.00
2022-11-01T08:48:10.198Z,58.79
2022-11-01T08:50:38.166Z,58.50
2022-11-01T08:53:10.683Z,57.98
2022-11-01T08:55:39.544Z,58.21
2022-11-01T08:58:07.458Z,57.44
2022-11-01T09:00:35.704Z,57.12
2022-11-01T09:03:03.201Z,57.28
2022-11-01T09:05:31.575Z,58.27
2022-11-01T09:08:02.142Z,57.67
2022-11-01T09:10:31.263Z,56.87
2022-11-01T09:13:02.065Z,55.71
2022-11-01T09:15:29.944Z,55.55
2022-11-01T09:17:57.234Z,55.12
2022-11-01T09:20:24.402Z,56.33
2022-11-01T09:22:52.625Z,55.60
2022-11-01T09:25:20.629Z,55.58
2022-11-01T09:27:47.513Z,54.86
2022-11-01T09:30:14.488Z,54.10
2022-11-01T09:32:41.461Z,53.65
2022-11-01T09:35:12.335Z,53.86
2022-11-01T09:37:39.716Z,54.07
2022-11-01T09:40:07.583Z,53.04
2022-11-01T09:42:40.216Z,52.72
2022-11-01T09:45:17.658Z,52.49
2022-11-01T09:47:51.527Z,52.04
2022-11-01T09:50:22.740Z,51.69
2022-11-01T09:52:52.518Z,51.44
2022-11-01T09:55:37.734Z,50.85
2022-11-01T09:58:31.441Z,51.42
2022-11-01T10:01:17.164Z,51.07
2022-11-01T10:04:14.415Z,50.21
2022-11-01T10:06:46.307Z,50.30
2022-11-01T10:09:43.999Z,48.45
2022-11-01T10:12:17.381Z,51.54
2022-11-01T10:15:09.088Z,49.94
2022-11-01T10:17:52.973Z,50.21
2022-11-01T10:20:34.837Z,49.16
2022-11-01T10:23:04.995Z,49.77
2022-11-01T10:25:36.354Z,51.53
2022-11-01T10:28:17.156Z,50.83
2022-11-01T10:30:49.344Z,49.63
2022-11-01T10:33:32.100Z,49.97
2022-11-01T10:36:04.015Z,49.68
2022-11-01T10:41:51.513Z,44.93
2022-11-01T10:44:29.182Z,46.53
2022-11-01T10:46:59.122Z,46.50
2022-11-01T10:50:00.199Z,47.96
2022-11-01T10:52:25.458Z,47.37
2022-11-01T10:54:53.908Z,46.46
2022-11-01T10:57:46.006Z,45.19
2022-11-01T11:00:19.951Z,45.86
2022-11-01T11:03:00.557Z,45.10
2022-11-01T11:05:30.544Z,45.71
2022-11-01T11:07:57.797Z,45.48
2022-11-01T11:10:29.360Z,44.55
2022-11-01T11:13:06.903Z,43.30
2022-11-01T11:16:14.694Z,42.61
2022-11-01T11:19:12.515Z,43.64
2022-11-01T11:21:45.205Z,44.25
2022-11-01T11:24:37.772Z,42.07
2022-11-01T11:27:12.933Z,42.57
2022-11-01T11:29:49.137Z,43.58
2022-11-01T11:32:20.252Z,42.67
2022-11-01T11:34:58.639Z,41.91
2022-11-01T11:37:33.756Z,42.98
2022-11-01T11:40:19.670Z,43.05
2022-11-01T11:42:49.259Z,41.74
2022-11-01T11:45:22.269Z,41.61
2022-11-01T11:47:50.695Z,40.87
2022-11-01T11:50:20.713Z,39.82
2022-11-01T11:52:52.192Z,40.66
2022-11-01T11:55:38.118Z,38.17
2022-11-01T11:58:13.605Z,39.82
2022-11-01T12:00:47.478Z,38.86
2022-11-01T12:03:17.966Z,38.05
2022-11-01T12:06:00.455Z,34.19
2022-11-01T12:08:36.199Z,35.16
2022-11-01T12:11:05.255Z,37.20
2022-11-01T12:13:36.230Z,35.98
2022-11-01T12:16:16.768Z,36.24
2022-11-01T12:18:52.638Z,36.34
2022-11-01T12:21:43.648Z,31.65
2022-11-01T12:24:22.485Z,35.04
2022-11-01T12:26:53.303Z,36.00
2022-11-01T12:29:35.056Z,34.68
2022-11-01T12:32:09.916Z,36.24
2022-11-01T12:34:42.544Z,36.19
2022-11-01T12:37:21.675Z,35.11
2022-11-01T12:39:54.159Z,34.96
2022-11-01T12:43:19.355Z,31.25
2022-11-01T12:45:51.242Z,33.19
2022-11-01T12:48:44.376Z,30.26
2022-11-01T12:51:29.335Z,33.03
2022-11-01T12:54:02.558Z,33.70
2022-11-01T12:56:29.652Z,34.18
2022-11-01T12:58:58.145Z,32.53
2022-11-01T13:01:46.075Z,31.15
2022-11-01T13:04:37.631Z,30.00
2022-11-01T13:07:13.313Z,30.51
2022-11-01T13:10:05.598Z,30.86
2022-11-01T13:12:38.398Z,30.97
2022-11-01T13:15:28.377Z,31.73
2022-11-01T13:18:10.993Z,31.42
2022-11-01T13:21:07.603Z,29.50
2022-11-01T13:23:38.442Z,30.78
2022-11-01T13:26:19.161Z,30.03
2022-11-01T13:28:49.230Z,29.99
2022-11-01T13:31:54.355Z,28.23
2022-11-01T13:34:41.007Z,27.95
2022-11-01T13:37:22.023Z,29.92
2022-11-01T13:39:51.950Z,30.18
2022-11-01T13:42:24.741Z,30.03
2022-11-01T13:45:30.497Z,28.46
2022-11-01T13:48:39.153Z,28.81
2022-11-01T13:51:12.981Z,28.80
2022-11-01T13:53:41.444Z,30.85
2022-11-01T13:56:30.949Z,29.47
2022-11-01T13:58:59.493Z,31.29
2022-11-01T14:01:35.551Z,31.00
2022-11-01T14:04:15.677Z,29.94
2022-11-01T14:06:51.530Z,29.69
2022-11-01T14:09:30.268Z,29.32
2022-11-01T14:12:17.601Z,31.03
2022-11-01T14:14:48.075Z,30.09
2022-11-01T14:17:24.145Z,30.19
2022-11-01T14:19:59.057Z,31.60
2022-11-01T14:22:28.956Z,31.70
2022-11-01T14:25:00.159Z,30.56
2022-11-01T14:27:35.173Z,30.85
2022-11-01T14:30:13.768Z,30.79
2022-11-01T14:32:43.476Z,32.13
2022-11-01T14:35:12.975Z,31.27
2022-11-01T14:37:50.416Z,32.50
2022-11-01T14:40:42.785Z,32.32
2022-11-01T14:43:25.416Z,32.96
2022-11-01T14:46:02.077Z,33.08
2022-11-01T14:49:01.887Z,32.63
2022-11-01T14:51:35.121Z,34.52
2022-11-01T14:54:19.148Z,36.16
2022-11-01T14:56:52.266Z,35.35
2022-11-01T14:59:38.485Z,33.86
2022-11-01T15:02:07.399Z,33.89
2022-11-01T15:04:46.160Z,35.16
2022-11-01T15:07:29.437Z,32.34
2022-11-01T15:10:11.123Z,34.94
2022-11-01T15:12:58.240Z,33.98
2022-11-01T15:15:30.175Z,37.33
2022-11-01T15:17:58.927Z,38.62
2022-11-01T15:20:35.731Z,38.12
2022-11-01T15:23:07.363Z,36.93
2022-11-01T15:25:34.484Z,36.46
2022-11-01T15:28:01.575Z,36.38
2022-11-01T15:30:32.202Z,36.60
2022-11-01T15:33:30.897Z,36.04
2022-11-01T15:36:03.011Z,36.97
2022-11-01T15:38:34.942Z,37.01
2022-11-01T15:41:31.560Z,37.20
2022-11-01T15:44:04.084Z,37.79
2022-11-01T15:46:39.837Z,38.63
2022-11-01T15:49:18.099Z,39.38
2022-11-01T15:52:00.049Z,40.27
2022-11-01T15:54:38.253Z,40.93
2022-11-01T15:57:13.160Z,41.90
2022-11-01T15:59:50.311Z,42.72
2022-11-01T16:02:25.933Z,42.41
2022-11-01T16:04:53.851Z,43.08
2022-11-01T16:07:22.260Z,43.41
2022-11-01T16:09:58.153Z,44.12
2022-11-01T16:12:32.017Z,44.81
2022-11-01T16:15:28.464Z,45.01
2022-11-01T16:17:59.220Z,44.82
2022-11-01T16:20:38.434Z,44.94
2022-11-01T16:23:12.449Z,45.19
2022-11-01T16:25:40.502Z,46.27
2022-11-01T16:28:10.277Z,46.62
2022-11-01T16:30:52.065Z,48.33
2022-11-01T16:33:47.117Z,48.31
2022-11-01T16:36:20.594Z,48.06
2022-11-01T16:38:52.688Z,48.26
2022-11-01T16:41:29.342Z,48.92
2022-11-01T16:43:59.244Z,49.37
2022-11-01T16:46:29.667Z,49.70
2022-11-01T16:49:05.664Z,49.86
2022-11-01T16:51:33.567Z,49.99
2022-11-01T16:54:01.334Z,50.21
2022-11-01T16:56:36.549Z,50.84
2022-11-01T16:59:22.690Z,51.56
2022-11-01T17:01:50.917Z,51.24
2022-11-01T17:04:19.521Z,51.02
2022-11-01T17:06:46.727Z,50.97
2022-11-01T17:09:16.395Z,51.57
2022-11-01T17:11:50.469Z,52.41
2022-11-01T17:14:19.690Z,52.60
2022-11-01T17:16:48.436Z,52.92
2022-11-01T17:19:32.328Z,51.75
2022-11-01T17:22:04.172Z,52.81
2022-11-01T17:24:33.613Z,52.48
2022-11-01T17:27:05.297Z,54.38
2022-11-01T17:29:33.135Z,54.07
2022-11-01T17:32:02.000Z,53.72
2022-11-01T17:34:29.670Z,55.01
2022-11-01T17:36:57.602Z,55.83
2022-11-01T17:39:28.835Z,54.76
2022-11-01T17:41:56.842Z,55.88
2022-11-01T17:44:23.886Z,57.41
2022-11-01T17:46:50.829Z,56.94
2022-11-01T17:49:21.635Z,56.81
2022-11-01T17:51:54.245Z,59.00
2022-11-01T17:54:22.452Z,58.22
2022-11-01T17:56:50.222Z,57.54
2022-11-01T17:59:17.249Z,55.83
2022-11-01T18:01:45.360Z,55.86
2022-11-01T18:04:12.441Z,55.60
2022-11-01T18:06:40.871Z,54.72
2022-11-01T18:09:20.791Z,53.56
2022-11-01T18:12:00.224Z,53.99
2022-11-01T18:14:55.271Z,54.66
2022-11-01T18:17:32.950Z,54.68
2022-11-01T18:20:39.015Z,54.85
2022-11-01T18:23:12.194Z,55.20
2022-11-01T18:25:40.484Z,55.25
2022-11-01T18:28:26.495Z,54.62
2022-11-01T18:30:59.353Z,54.50
2022-11-01T18:33:55.990Z,55.37
2022-11-01T18:36:53.752Z,56.27
2022-11-01T18:39:36.508Z,56.37
2022-11-01T18:42:06.830Z,56.10
2022-11-01T18:44:33.802Z,55.58
2022-11-01T18:47:32.680Z,55.72
2022-11-01T18:50:03.875Z,55.87
2022-11-01T18:52:30.960Z,55.75
2022-11-01T18:54:58.143Z,56.15
2022-11-01T18:57:28.984Z,57.03
2022-11-01T18:59:57.388Z,57.15
2022-11-01T19:02:28.235Z,56.57
2022-11-01T19:05:14.666Z,55.33
2022-11-01T19:08:05.291Z,55.73
2022-11-01T19:10:31.334Z,55.55
2022-11-01T19:12:58.283Z,55.61
2022-11-01T19:15:28.652Z,56.10
2022-11-01T19:18:01.331Z,55.72
2022-11-01T19:20:34.637Z,56.12
2022-11-01T19:23:04.366Z,56.17
2022-11-01T19:25:32.898Z,55.50
2022-11-01T19:28:04.245Z,56.76
2022-11-01T19:30:34.176Z,56.70
2022-11-01T19:33:30.110Z,57.00
2022-11-01T19:35:58.663Z,56.19
2022-11-01T19:38:25.602Z,55.96
2022-11-01T19:40:54.042Z,55.01
2022-11-01T19:43:24.563Z,54.84
2022-11-01T19:45:53.809Z,55.24
2022-11-01T19:48:24.112Z,55.09
2022-11-01T19:50:51.567Z,55.50
2022-11-01T19:53:27.296Z,55.76
2022-11-01T19:56:22.261Z,57.31
2022-11-01T19:59:00.333Z,57.20
2022-11-01T20:01:43.384Z,56.63
2022-11-01T20:04:24.467Z,56.96
2022-11-01T20:07:01.270Z,56.76
2022-11-01T20:09:31.235Z,56.45
2022-11-01T20:11:58.164Z,56.73
2022-11-01T20:14:25.237Z,57.83
2022-11-01T20:16:52.208Z,58.36
2022-11-01T20:19:20.441Z,58.47
2022-11-01T20:21:47.717Z,58.52
2022-11-01T20:24:15.744Z,58.70
2022-11-01T20:26:42.813Z,58.70
2022-11-01T20:29:10.563Z,59.13
2022-11-01T20:31:37.527Z,59.31
2022-11-01T20:34:04.754Z,58.91
2022-11-01T20:36:31.873Z,59.46
2022-11-01T20:38:58.781Z,59.25
2022-11-01T20:41:25.730Z,59.44
2022-11-01T20:43:52.729Z,59.50
2022-11-01T20:46:19.646Z,60.01
2022-11-01T20:48:46.596Z,60.05
2022-11-01T20:51:13.742Z,60.55
2022-11-01T20:53:41.536Z,60.76
2022-11-01T20:56:09.250Z,60.57
2022-11-01T20:58:42.330Z,60.93
2022-11-01T21:01:14.218Z,61.41
2022-11-01T21:03:41.337Z,61.26
2022-11-01T21:06:17.027Z,61.73
2022-11-01T21:08:47.286Z,62.20
2022-11-01T21:11:21.750Z,62.45
2022-11-01T21:13:51.044Z,62.68
2022-11-01T21:16:28.891Z,63.11
2022-11-01T21:19:02.328Z,63.19
2022-11-01T21:21:35.364Z,63.29
2022-11-01T21:24:37.135Z,63.22
2022-11-01T21:27:26.900Z,63.62
2022-11-01T21:30:01.427Z,63.43
2022-11-01T21:32:35.234Z,63.67
2022-11-01T21:35:38.625Z,64.34
2022-11-01T21:38:27.872Z,66.31
2022-11-01T21:40:54.798Z,65.39
2022-11-01T21:43:35.307Z,65.02
2022-11-01T21:46:02.292Z,65.18
2022-11-01T21:48:30.746Z,65.32
2022-11-01T21:50:57.782Z,65.57
2022-11-01T21:53:25.599Z,65.63
2022-11-01T21:55:53.448Z,66.30
2022-11-01T21:58:22.597Z,66.41
2022-11-01T22:00:50.571Z,66.61
2022-11-01T22:03:18.590Z,66.88
2022-11-01T22:05:47.010Z,66.75
2022-11-01T22:08:15.038Z,67.22
2022-11-01T22:10:45.109Z,67.23
2022-11-01T22:13:13.237Z,67.61
2022-11-01T22:15:40.760Z,66.84
2022-11-01T22:18:08.126Z,67.10
2022-11-01T22:20:35.579Z,67.32
2022-11-01T22:23:02.747Z,68.31
2022-11-01T22:25:31.256Z,67.97
2022-11-01T22:27:58.147Z,67.60
2022-11-01T22:30:25.449Z,67.19
2022-11-01T22:32:52.667Z,67.66
2022-11-01T22:35:19.877Z,68.24
2022-11-01T22:37:46.748Z,67.99
2022-11-01T22:40:14.833Z,67.58
2022-11-01T22:42:41.806Z,67.88
2022-11-01T22:45:16.157Z,68.15
2022-11-01T22:47:47.074Z,67.72
2022-11-01T22:50:26.666Z,68.21
2022-11-01T22:52:54.487Z,68.20
2022-11-01T22:55:24.883Z,68.42
2022-11-01T22:57:57.783Z,68.69
2022-11-01T23:00:33.737Z,68.56
2022-11-01T23:03:15.352Z,69.12
2022-11-01T23:05:42.357Z,68.91
2022-11-01T23:08:30.633Z,68.66
2022-11-01T23:10:58.422Z,68.68
2022-11-01T23:13:47.390Z,69.13
2022-11-01T23:16:37.130Z,70.05
2022-11-01T23:19:11.388Z,70.23
2022-11-01T23:21:38.507Z,69.77
2022-11-01T23:24:08.085Z,70.68
2022-11-01T23:26:35.045Z,70.33
2022-11-01T23:29:02.645Z,70.22
2022-11-01T23:31:30.027Z,69.97
2022-11-01T23:33:57.016Z,70.37
2022-11-01T23:36:29.155Z,70.89
2022-11-01T23:39:03.361Z,70.92
2022-11-01T23:41:39.587Z,71.53
2022-11-01T23:44:16.405Z,72.01
2022-11-01T23:46:43.663Z,72.08
2022-11-01T23:49:23.610Z,72.38
2022-11-01T23:51:51.177Z,71.96
2022-11-01T23:54:30.924Z,71.48
2022-11-01T23:56:57.889Z,71.54
2022-11-01T23:59:24.978Z,71.58
